• Join FlightAware (Why Join?)
  • Login
  • US Flag 
01:48PM EST


 

Airport Tracker/Info


-or-


 

Live Flight TrackerFlight Track Log ✈ EJA831 ✈ 02-May-2014 ✈ KSDL - KOAK

Flight Track Log - Related Links

Times and Time Zones

All times are in EDT time to prevent confusion due to time zone crossing. See the EJA831 flight status page for this flight to view local times or setup timezone preferences in your user account.

Time Position Orientation Groundspeed Altitude Reporting Facility
EDT Latitude Longitude Course Direction KTS MPH feet Rate Location/Type
11:50AM 33.6333 -111.9000 334° Northwest 170 196 2,600  Level Phoenix TRACON
11:51AM 33.6667 -111.9000 360° North 189 217 4,300 1,980 Climbing Phoenix TRACON
11:52AM 33.6939 -111.9378 311° West 205 236 5,500 2,460 Climbing Albuquerque Center
11:53AM 33.7411 -111.9931 316° Northwest 234 269 8,700 2,940 Climbing Albuquerque Center
11:54AM 33.7983 -112.0606 316° Northwest 285 328 11,600 2,700 Climbing Albuquerque Center
11:55AM 33.8586 -112.1314 316° Northwest 297 342 14,300 2,460 Climbing Albuquerque Center
11:56AM 34.0675 -112.3505 334° Northwest  Level FlightAware Approximate
11:56AM 33.9214 -112.2072 315° West 313 360 16,800  Level Albuquerque Center
11:57AM 34.0003 -112.3011 315° West 327 376 19,700 1,980 Climbing Albuquerque Center
11:58AM 34.0789 -112.3647 326° Northwest 341 392 21,000 600 Climbing Albuquerque Center
11:59AM 34.1703 -112.4225 332° Northwest 366 421 21,000 720 Level Albuquerque Center
12:00PM 34.2606 -112.4778 333° Northwest 364 419 22,500 1,680 Climbing Albuquerque Center
12:01PM 34.3469 -112.5319 333° Northwest 354 407 24,500 1,800 Climbing Albuquerque Center
12:02PM 34.4344 -112.5858 333° Northwest 353 406 26,300 1,560 Climbing Albuquerque Center
12:03PM 34.5189 -112.6581 325° Northwest 366 421 27,800 1,560 Climbing Albuquerque Center
12:04PM 34.5797 -112.7914 299° West 374 430 29,600 1,560 Climbing Albuquerque Center
12:05PM 34.6292 -112.9056 298° West 378 435 31,100 1,440 Climbing Albuquerque Center
12:06PM 34.6792 -113.0183 298° West 380 437 32,600 1,440 Climbing Albuquerque Center
12:07PM 34.7286 -113.1300 298° West 380 437 34,100 1,380 Climbing Albuquerque Center
12:08PM 34.7775 -113.2397 299° West 374 430 35,500 900 Climbing Albuquerque Center
12:09PM 34.8258 -113.3517 298° West 372 428 36,000 240 Climbing Albuquerque Center
12:10PM 34.8886 -113.4950 298° West 394 453 36,000  Level Albuquerque Center
12:11PM 34.9406 -113.6169 297° West 402 463 36,000  Level Albuquerque Center
12:12PM 34.9939 -113.7369 299° West 402 463 36,000  Level Albuquerque Center
12:13PM 35.0447 -113.8578 297° West 402 463 36,000  Level Albuquerque Center
12:14PM 35.0972 -113.9781 298° West 402 463 36,000  Level Albuquerque Center
12:16PM 35.1572 -114.1228 297° West 402 463 36,000  Level Albuquerque Center
12:17PM 35.2106 -114.2419 299° West 401 461 36,000  Level Los Angeles Center
12:18PM 35.2625 -114.3633 298° West 401 461 36,000  Level Los Angeles Center
12:19PM 35.3239 -114.5072 298° West 399 459 36,000 420 Level Los Angeles Center
12:20PM 35.3747 -114.6286 297° West 399 459 36,900 1,020 Climbing Los Angeles Center
12:21PM 35.4236 -114.7436 298° West 387 445 38,200 1,200 Climbing Los Angeles Center
12:22PM 35.4806 -114.8472 304° West 370 426 39,500 840 Climbing Los Angeles Center
12:23PM 35.5486 -114.9411 312° West 368 423 40,000 240 Climbing Los Angeles Center
12:24PM 35.6183 -115.0392 311° West 374 430 40,000  Level Los Angeles Center
12:25PM 35.7047 -115.1617 311° West 391 450 40,000  Level Los Angeles Center
12:26PM 35.7764 -115.2633 311° West 391 450 40,000  Level Los Angeles Center
12:27PM 35.8486 -115.3658 311° West 392 451 40,000  Level Los Angeles Center
12:28PM 35.9203 -115.4681 311° West 392 451 40,000  Level Los Angeles Center
12:29PM 35.9922 -115.5706 311° West 393 452 40,000  Level Los Angeles Center
12:30PM 36.0647 -115.6764 310° West 396 456 40,000  Level Los Angeles Center
12:31PM 36.1386 -115.7811 311° West 397 457 40,000  Level Los Angeles Center
12:32PM 36.2164 -115.8928 311° West 397 457 40,000  Level Los Angeles Center
12:33PM 36.2897 -115.9978 311° West 397 457 40,000  Level Los Angeles Center
12:34PM 36.3614 -116.1022 310° West 398 458 40,000  Level Los Angeles Center
12:35PM 36.4431 -116.2233 310° West 397 457 40,000  Level Los Angeles Center
12:36PM 36.5164 -116.3250 312° West 397 457 40,000  Level Los Angeles Center
12:37PM 36.5897 -116.4369 309° West 397 457 40,000  Level Los Angeles Center
12:38PM 36.6614 -116.5422 310° West 397 457 40,000  Level Los Angeles Center
12:39PM 36.7319 -116.6469 310° West 397 457 40,000  Level Los Angeles Center
12:40PM 36.8056 -116.7503 312° West 397 457 40,000  Level Los Angeles Center
12:41PM 36.9164 -116.8425 326° Northwest 396 456 40,000  Level Los Angeles Center
12:43PM 37.0086 -116.9192 326° Northwest 397 457 40,000  Level Los Angeles Center
12:44PM 37.1006 -116.9969 326° Northwest 398 458 40,000  Level Los Angeles Center
12:45PM 37.1925 -117.0739 326° Northwest 398 458 40,000  Level Los Angeles Center
12:46PM 37.2833 -117.1522 326° Northwest 398 458 40,000  Level Los Angeles Center
12:47PM 37.3564 -117.2553 312° West 398 458 40,000  Level Los Angeles Center
12:48PM 37.3844 -117.3919 285° West 403 464 40,000  Level Los Angeles Center
12:49PM 37.4117 -117.5569 282° West 402 463 40,000  Level Los Angeles Center
12:50PM 37.4325 -117.6944 281° West 400 460 40,000  Level Oakland Center
12:51PM 37.4531 -117.8297 281° West 399 459 40,000  Level Oakland Center
12:52PM 37.4747 -117.9658 281° West 398 458 40,000  Level Oakland Center
12:53PM 37.5006 -118.1322 281° West 400 460 40,000  Level Oakland Center
12:54PM 37.5219 -118.2675 281° West 397 457 40,000  Level Oakland Center
12:55PM 37.5433 -118.4042 281° West 397 457 40,000  Level Oakland Center
12:56PM 37.5639 -118.5408 281° West 397 457 40,000  Level Oakland Center
12:57PM 37.5847 -118.6761 281° West 396 456 40,000  Level Oakland Center
12:58PM 37.6039 -118.8086 280° West 394 453 40,000 -600 Level Oakland Center
12:59PM 37.6242 -118.9436 281° West 394 453 38,800 -1,320 Descending Oakland Center
01:00PM 37.6439 -119.0758 281° West 391 450 37,300 -1,320 Descending Oakland Center
01:01PM 37.6622 -119.2081 280° West 385 443 36,200 -660 Descending Oakland Center
01:02PM 37.6856 -119.3717 280° West 392 451 36,000 -120 Descending Oakland Center
01:03PM 37.7042 -119.5064 280° West 392 451 36,000 -360 Level Oakland Center
01:04PM 37.7231 -119.6419 280° West 392 451 35,300 -1,140 Descending Oakland Center
01:05PM 37.7425 -119.7775 280° West 392 451 33,700 -1,560 Descending Oakland Center
01:06PM 37.7617 -119.9144 280° West 392 451 32,200 -1,500 Descending Oakland Center
01:07PM 37.7822 -120.0547 281° West 406 467 30,700 -1,500 Descending Oakland Center
01:08PM 37.8019 -120.2008 280° West 421 484 29,100 -1,980 Descending Oakland Center
01:09PM 37.8219 -120.3472 280° West 422 486 26,700 -2,580 Descending Oakland Center
01:10PM 37.8431 -120.5150 279° West 404 465 23,900 -2,340 Descending Oakland Center
01:11PM 37.8611 -120.6472 280° West 386 444 21,900 -1,980 Descending Oakland Center
01:12PM 37.8581 -120.7778 268° West 375 432 19,900 -2,040 Descending Oakland Center
01:13PM 37.8489 -120.9011 265° West 357 411 17,800 -2,040 Descending Oakland Center
01:14PM 37.8500 -121.0167 271° West 345 397 16,100 -1,860 Descending Northern Cal TRACON
01:15PM 37.8333 -121.1333 260° West 343 395 14,300 -1,860 Descending Northern Cal TRACON
01:16PM 37.8000 -121.2500 250° West 379 436 12,400 -1,800 Descending Northern Cal TRACON
01:17PM 37.7667 -121.3500 247° West 328 377 10,800 -1,260 Descending Northern Cal TRACON
01:18PM 37.7333 -121.4500 247° West 319 367 9,900 -780 Descending Northern Cal TRACON
01:19PM 37.7000 -121.5500 247° West 283 326 9,400 -780 Descending Northern Cal TRACON
01:20PM 37.6667 -121.6333 243° Southwest 278 320 8,500 -960 Descending Northern Cal TRACON
01:21PM 37.6500 -121.7167 256° West 254 292 7,500 -1,140 Descending Northern Cal TRACON
01:22PM 37.6500 -121.8000 270° West 209 241 6,300 -1,500 Descending Northern Cal TRACON
01:23PM 37.6500 -121.8667 270° West 208 239 4,600 -1,440 Descending Northern Cal TRACON
01:24PM 37.6500 -121.9333 270° West 211 243 3,600 -840 Descending Northern Cal TRACON
01:25PM 37.6556 -121.9775 279° West 212 244 3,400 -480 Descending Oakland Center
01:26PM 37.6719 -122.0442 287° West 206 237 2,900 -780 Descending Oakland Center
01:27PM 37.6883 -122.0975 291° West 180 207 1,800 -960 Descending Oakland Center
01:28PM 37.7047 -122.1439 294° West 156 180 1,000 -780 Descending Oakland Center
01:29PM 37.7189 -122.1881 292° West 146 168 300 -720 Descending Oakland Center
01:31PM 37.7167 -122.2167 270° West  Level FlightAware Approximate
01:38PM 37.7228 -122.2215 270° West  Level Estimated